sensor_id;sensor_type;location;lat;lon;timestamp;P1;durP1;ratioP1;P2;durP2;ratioP2
55212;SDS011;41083;52.932;6.674;2024-02-21T00:01:45;6.57;;;2.63;;
55212;SDS011;41083;52.932;6.674;2024-02-21T00:04:10;14.90;;;3.25;;
55212;SDS011;41083;52.932;6.674;2024-02-21T00:06:36;10.15;;;2.30;;
55212;SDS011;41083;52.932;6.674;2024-02-21T00:09:02;8.98;;;3.05;;
55212;SDS011;41083;52.932;6.674;2024-02-21T00:11:28;8.57;;;2.08;;
55212;SDS011;41083;52.932;6.674;2024-02-21T00:13:53;7.32;;;2.30;;
55212;SDS011;41083;52.932;6.674;2024-02-21T00:16:19;6.15;;;2.45;;
55212;SDS011;41083;52.932;6.674;2024-02-21T00:18:45;10.68;;;3.10;;
55212;SDS011;41083;52.932;6.674;2024-02-21T00:21:10;6.00;;;2.25;;
55212;SDS011;41083;52.932;6.674;2024-02-21T00:23:42;7.22;;;3.05;;
55212;SDS011;41083;52.932;6.674;2024-02-21T00:26:14;8.85;;;3.13;;
55212;SDS011;41083;52.932;6.674;2024-02-21T00:28:40;10.50;;;2.90;;
55212;SDS011;41083;52.932;6.674;2024-02-21T00:31:05;10.85;;;3.13;;
55212;SDS011;41083;52.932;6.674;2024-02-21T00:33:31;9.45;;;3.65;;
55212;SDS011;41083;52.932;6.674;2024-02-21T00:35:57;9.45;;;3.95;;
55212;SDS011;41083;52.932;6.674;2024-02-21T00:38:23;9.27;;;3.10;;
55212;SDS011;41083;52.932;6.674;2024-02-21T00:40:48;8.88;;;3.25;;
55212;SDS011;41083;52.932;6.674;2024-02-21T00:43:14;9.27;;;3.33;;
55212;SDS011;41083;52.932;6.674;2024-02-21T00:45:39;8.55;;;2.90;;
55212;SDS011;41083;52.932;6.674;2024-02-21T00:48:05;12.70;;;3.22;;
55212;SDS011;41083;52.932;6.674;2024-02-21T00:50:31;7.80;;;3.20;;
55212;SDS011;41083;52.932;6.674;2024-02-21T00:52:57;6.80;;;3.25;;
55212;SDS011;41083;52.932;6.674;2024-02-21T00:55:23;6.32;;;3.00;;
55212;SDS011;41083;52.932;6.674;2024-02-21T00:57:48;9.25;;;3.60;;
55212;SDS011;41083;52.932;6.674;2024-02-21T01:00:14;8.23;;;3.22;;
55212;SDS011;41083;52.932;6.674;2024-02-21T01:02:40;7.63;;;3.45;;
55212;SDS011;41083;52.932;6.674;2024-02-21T01:05:06;10.30;;;3.53;;
55212;SDS011;41083;52.932;6.674;2024-02-21T01:07:32;11.15;;;3.92;;
55212;SDS011;41083;52.932;6.674;2024-02-21T01:09:57;8.23;;;3.88;;
55212;SDS011;41083;52.932;6.674;2024-02-21T01:12:23;13.63;;;3.63;;
55212;SDS011;41083;52.932;6.674;2024-02-21T01:14:49;7.70;;;3.50;;
55212;SDS011;41083;52.932;6.674;2024-02-21T01:17:15;8.73;;;4.10;;
55212;SDS011;41083;52.932;6.674;2024-02-21T01:19:40;8.48;;;3.78;;
55212;SDS011;41083;52.932;6.674;2024-02-21T01:22:06;9.73;;;3.60;;
55212;SDS011;41083;52.932;6.674;2024-02-21T01:24:32;7.80;;;3.53;;
55212;SDS011;41083;52.932;6.674;2024-02-21T01:26:58;7.72;;;3.72;;
55212;SDS011;41083;52.932;6.674;2024-02-21T01:29:23;8.65;;;3.53;;
55212;SDS011;41083;52.932;6.674;2024-02-21T01:31:49;10.00;;;4.05;;
55212;SDS011;41083;52.932;6.674;2024-02-21T01:34:14;7.13;;;3.35;;
55212;SDS011;41083;52.932;6.674;2024-02-21T01:36:40;12.70;;;4.40;;
55212;SDS011;41083;52.932;6.674;2024-02-21T01:39:07;10.85;;;3.72;;
55212;SDS011;41083;52.932;6.674;2024-02-21T01:41:32;7.57;;;3.10;;
55212;SDS011;41083;52.932;6.674;2024-02-21T01:43:58;6.57;;;3.33;;
55212;SDS011;41083;52.932;6.674;2024-02-21T01:46:24;11.32;;;3.00;;
55212;SDS011;41083;52.932;6.674;2024-02-21T01:48:55;11.45;;;3.13;;
55212;SDS011;41083;52.932;6.674;2024-02-21T01:51:21;7.72;;;2.60;;
55212;SDS011;41083;52.932;6.674;2024-02-21T01:53:47;8.07;;;3.15;;
55212;SDS011;41083;52.932;6.674;2024-02-21T01:56:15;8.40;;;3.33;;
55212;SDS011;41083;52.932;6.674;2024-02-21T01:58:41;8.00;;;2.83;;
55212;SDS011;41083;52.932;6.674;2024-02-21T02:01:09;11.25;;;3.08;;
55212;SDS011;41083;52.932;6.674;2024-02-21T02:03:35;11.32;;;2.75;;
55212;SDS011;41083;52.932;6.674;2024-02-21T02:06:02;9.32;;;2.80;;
55212;SDS011;41083;52.932;6.674;2024-02-21T02:08:29;8.32;;;3.58;;
55212;SDS011;41083;52.932;6.674;2024-02-21T02:10:56;8.00;;;2.97;;
55212;SDS011;41083;52.932;6.674;2024-02-21T02:13:22;10.93;;;3.70;;
55212;SDS011;41083;52.932;6.674;2024-02-21T02:15:48;5.75;;;2.50;;
55212;SDS011;41083;52.932;6.674;2024-02-21T02:18:15;8.10;;;2.55;;
55212;SDS011;41083;52.932;6.674;2024-02-21T02:20:41;10.68;;;3.72;;
55212;SDS011;41083;52.932;6.674;2024-02-21T02:25:46;7.50;;;3.03;;
55212;SDS011;41083;52.932;6.674;2024-02-21T02:28:17;7.85;;;3.22;;
55212;SDS011;41083;52.932;6.674;2024-02-21T02:30:43;7.18;;;2.95;;
55212;SDS011;41083;52.932;6.674;2024-02-21T02:33:09;7.78;;;2.83;;
55212;SDS011;41083;52.932;6.674;2024-02-21T02:35:35;9.77;;;2.70;;
55212;SDS011;41083;52.932;6.674;2024-02-21T02:38:05;7.05;;;3.38;;
55212;SDS011;41083;52.932;6.674;2024-02-21T02:40:31;7.35;;;3.08;;
55212;SDS011;41083;52.932;6.674;2024-02-21T02:42:58;10.43;;;3.10;;
55212;SDS011;41083;52.932;6.674;2024-02-21T02:45:24;8.05;;;3.65;;
55212;SDS011;41083;52.932;6.674;2024-02-21T02:47:51;5.75;;;2.40;;
55212;SDS011;41083;52.932;6.674;2024-02-21T02:50:19;7.28;;;2.95;;
55212;SDS011;41083;52.932;6.674;2024-02-21T02:52:45;4.88;;;2.03;;
55212;SDS011;41083;52.932;6.674;2024-02-21T02:55:11;5.60;;;2.33;;
55212;SDS011;41083;52.932;6.674;2024-02-21T02:57:37;6.13;;;2.17;;
55212;SDS011;41083;52.932;6.674;2024-02-21T03:00:03;5.55;;;2.55;;
55212;SDS011;41083;52.932;6.674;2024-02-21T03:02:29;5.28;;;2.03;;
55212;SDS011;41083;52.932;6.674;2024-02-21T03:04:56;4.00;;;2.10;;
55212;SDS011;41083;52.932;6.674;2024-02-21T03:07:22;9.85;;;2.35;;
55212;SDS011;41083;52.932;6.674;2024-02-21T03:09:49;5.22;;;1.90;;
55212;SDS011;41083;52.932;6.674;2024-02-21T03:12:15;8.25;;;2.53;;
55212;SDS011;41083;52.932;6.674;2024-02-21T03:14:49;4.50;;;2.42;;
55212;SDS011;41083;52.932;6.674;2024-02-21T03:17:15;6.93;;;2.17;;
55212;SDS011;41083;52.932;6.674;2024-02-21T03:19:41;6.25;;;2.22;;
55212;SDS011;41083;52.932;6.674;2024-02-21T03:22:06;5.53;;;1.67;;
55212;SDS011;41083;52.932;6.674;2024-02-21T03:24:32;7.18;;;2.25;;
55212;SDS011;41083;52.932;6.674;2024-02-21T03:26:58;7.07;;;2.58;;
55212;SDS011;41083;52.932;6.674;2024-02-21T03:29:24;9.45;;;2.20;;
55212;SDS011;41083;52.932;6.674;2024-02-21T03:31:50;7.45;;;1.98;;
55212;SDS011;41083;52.932;6.674;2024-02-21T03:34:16;7.90;;;1.75;;
55212;SDS011;41083;52.932;6.674;2024-02-21T03:36:42;5.57;;;2.38;;
55212;SDS011;41083;52.932;6.674;2024-02-21T03:39:07;11.15;;;2.63;;
55212;SDS011;41083;52.932;6.674;2024-02-21T03:41:34;7.07;;;1.88;;
55212;SDS011;41083;52.932;6.674;2024-02-21T03:44:00;5.45;;;1.95;;
55212;SDS011;41083;52.932;6.674;2024-02-21T03:46:26;5.72;;;2.10;;
55212;SDS011;41083;52.932;6.674;2024-02-21T03:48:52;12.02;;;2.55;;
55212;SDS011;41083;52.932;6.674;2024-02-21T03:51:18;8.90;;;2.03;;
55212;SDS011;41083;52.932;6.674;2024-02-21T03:53:44;5.32;;;2.00;;
55212;SDS011;41083;52.932;6.674;2024-02-21T03:56:09;7.28;;;2.08;;
55212;SDS011;41083;52.932;6.674;2024-02-21T03:58:35;6.50;;;1.92;;
55212;SDS011;41083;52.932;6.674;2024-02-21T04:01:01;6.60;;;2.15;;
55212;SDS011;41083;52.932;6.674;2024-02-21T04:03:27;4.75;;;1.80;;
55212;SDS011;41083;52.932;6.674;2024-02-21T04:05:53;6.47;;;2.15;;
55212;SDS011;41083;52.932;6.674;2024-02-21T04:08:19;3.13;;;1.88;;
55212;SDS011;41083;52.932;6.674;2024-02-21T04:10:44;7.68;;;1.98;;
55212;SDS011;41083;52.932;6.674;2024-02-21T04:13:10;5.00;;;2.55;;
55212;SDS011;41083;52.932;6.674;2024-02-21T04:15:36;7.20;;;2.00;;
55212;SDS011;41083;52.932;6.674;2024-02-21T04:18:02;8.35;;;2.13;;
55212;SDS011;41083;52.932;6.674;2024-02-21T04:20:28;8.73;;;2.33;;
55212;SDS011;41083;52.932;6.674;2024-02-21T04:22:54;5.22;;;1.92;;
55212;SDS011;41083;52.932;6.674;2024-02-21T04:25:20;6.63;;;2.20;;
55212;SDS011;41083;52.932;6.674;2024-02-21T04:27:46;6.60;;;2.35;;
55212;SDS011;41083;52.932;6.674;2024-02-21T04:30:11;4.32;;;1.90;;
55212;SDS011;41083;52.932;6.674;2024-02-21T04:32:37;7.10;;;2.65;;
55212;SDS011;41083;52.932;6.674;2024-02-21T04:35:03;6.70;;;2.30;;
55212;SDS011;41083;52.932;6.674;2024-02-21T04:37:29;7.75;;;2.30;;
55212;SDS011;41083;52.932;6.674;2024-02-21T04:39:56;8.02;;;2.55;;
55212;SDS011;41083;52.932;6.674;2024-02-21T04:42:22;7.28;;;2.38;;
55212;SDS011;41083;52.932;6.674;2024-02-21T04:44:47;9.30;;;3.03;;
55212;SDS011;41083;52.932;6.674;2024-02-21T04:47:13;7.25;;;2.42;;
55212;SDS011;41083;52.932;6.674;2024-02-21T04:49:39;8.13;;;2.72;;
55212;SDS011;41083;52.932;6.674;2024-02-21T04:52:04;8.00;;;2.70;;
55212;SDS011;41083;52.932;6.674;2024-02-21T04:54:30;11.05;;;2.65;;
55212;SDS011;41083;52.932;6.674;2024-02-21T04:56:56;6.95;;;3.05;;
55212;SDS011;41083;52.932;6.674;2024-02-21T04:59:21;7.20;;;3.25;;
55212;SDS011;41083;52.932;6.674;2024-02-21T05:01:47;7.15;;;2.72;;
55212;SDS011;41083;52.932;6.674;2024-02-21T05:04:13;11.05;;;3.08;;
55212;SDS011;41083;52.932;6.674;2024-02-21T05:06:41;11.35;;;2.80;;
55212;SDS011;41083;52.932;6.674;2024-02-21T05:09:07;8.07;;;3.00;;
55212;SDS011;41083;52.932;6.674;2024-02-21T05:11:34;12.30;;;2.60;;
55212;SDS011;41083;52.932;6.674;2024-02-21T05:14:00;13.18;;;3.58;;
55212;SDS011;41083;52.932;6.674;2024-02-21T05:16:26;7.50;;;2.97;;
55212;SDS011;41083;52.932;6.674;2024-02-21T05:18:51;6.55;;;2.78;;
55212;SDS011;41083;52.932;6.674;2024-02-21T05:21:17;13.50;;;2.95;;
55212;SDS011;41083;52.932;6.674;2024-02-21T05:23:43;8.93;;;2.95;;
55212;SDS011;41083;52.932;6.674;2024-02-21T05:26:08;10.25;;;3.38;;
55212;SDS011;41083;52.932;6.674;2024-02-21T05:28:34;7.68;;;2.78;;
55212;SDS011;41083;52.932;6.674;2024-02-21T05:31:00;6.20;;;2.60;;
55212;SDS011;41083;52.932;6.674;2024-02-21T05:33:26;10.77;;;3.08;;
55212;SDS011;41083;52.932;6.674;2024-02-21T05:35:52;8.95;;;3.08;;
55212;SDS011;41083;52.932;6.674;2024-02-21T05:38:17;17.52;;;4.63;;
55212;SDS011;41083;52.932;6.674;2024-02-21T05:40:44;5.07;;;2.65;;
55212;SDS011;41083;52.932;6.674;2024-02-21T05:43:10;16.92;;;3.55;;
55212;SDS011;41083;52.932;6.674;2024-02-21T05:45:36;9.35;;;2.92;;
55212;SDS011;41083;52.932;6.674;2024-02-21T05:48:02;12.38;;;3.50;;
55212;SDS011;41083;52.932;6.674;2024-02-21T05:50:29;8.18;;;3.05;;
55212;SDS011;41083;52.932;6.674;2024-02-21T05:52:55;10.10;;;3.58;;
55212;SDS011;41083;52.932;6.674;2024-02-21T05:55:21;12.15;;;3.88;;
55212;SDS011;41083;52.932;6.674;2024-02-21T05:57:47;12.13;;;3.15;;
55212;SDS011;41083;52.932;6.674;2024-02-21T06:00:13;14.35;;;3.28;;
55212;SDS011;41083;52.932;6.674;2024-02-21T06:02:39;8.88;;;3.20;;
55212;SDS011;41083;52.932;6.674;2024-02-21T06:05:05;8.80;;;3.30;;
55212;SDS011;41083;52.932;6.674;2024-02-21T06:07:32;8.48;;;3.85;;
55212;SDS011;41083;52.932;6.674;2024-02-21T06:09:59;12.57;;;3.20;;
55212;SDS011;41083;52.932;6.674;2024-02-21T06:12:25;15.07;;;4.30;;
55212;SDS011;41083;52.932;6.674;2024-02-21T06:14:50;13.73;;;3.67;;
55212;SDS011;41083;52.932;6.674;2024-02-21T06:17:17;14.05;;;4.05;;
55212;SDS011;41083;52.932;6.674;2024-02-21T06:19:42;13.25;;;3.45;;
55212;SDS011;41083;52.932;6.674;2024-02-21T06:22:08;9.23;;;3.25;;
55212;SDS011;41083;52.932;6.674;2024-02-21T06:24:34;11.43;;;3.13;;
55212;SDS011;41083;52.932;6.674;2024-02-21T06:27:01;11.18;;;3.42;;
55212;SDS011;41083;52.932;6.674;2024-02-21T06:29:33;9.88;;;3.25;;
55212;SDS011;41083;52.932;6.674;2024-02-21T06:31:58;9.82;;;3.08;;
55212;SDS011;41083;52.932;6.674;2024-02-21T06:34:24;10.68;;;2.97;;
55212;SDS011;41083;52.932;6.674;2024-02-21T06:36:50;7.15;;;2.85;;
55212;SDS011;41083;52.932;6.674;2024-02-21T06:39:16;8.80;;;3.15;;
55212;SDS011;41083;52.932;6.674;2024-02-21T06:41:42;13.20;;;3.25;;
55212;SDS011;41083;52.932;6.674;2024-02-21T06:44:08;9.85;;;4.05;;
55212;SDS011;41083;52.932;6.674;2024-02-21T06:46:34;8.77;;;3.17;;
55212;SDS011;41083;52.932;6.674;2024-02-21T06:49:00;10.18;;;2.92;;
55212;SDS011;41083;52.932;6.674;2024-02-21T06:51:26;18.48;;;4.35;;
55212;SDS011;41083;52.932;6.674;2024-02-21T06:53:53;7.35;;;3.10;;
55212;SDS011;41083;52.932;6.674;2024-02-21T06:56:18;6.18;;;3.28;;
55212;SDS011;41083;52.932;6.674;2024-02-21T06:58:44;12.98;;;3.70;;
55212;SDS011;41083;52.932;6.674;2024-02-21T07:01:10;12.07;;;3.08;;
55212;SDS011;41083;52.932;6.674;2024-02-21T07:03:36;10.90;;;3.70;;
55212;SDS011;41083;52.932;6.674;2024-02-21T07:06:02;10.65;;;3.10;;
55212;SDS011;41083;52.932;6.674;2024-02-21T07:08:28;7.03;;;3.10;;
55212;SDS011;41083;52.932;6.674;2024-02-21T07:10:54;7.55;;;2.90;;
55212;SDS011;41083;52.932;6.674;2024-02-21T07:13:19;10.50;;;3.47;;
55212;SDS011;41083;52.932;6.674;2024-02-21T07:15:46;9.00;;;3.38;;
55212;SDS011;41083;52.932;6.674;2024-02-21T07:18:13;12.57;;;3.35;;
55212;SDS011;41083;52.932;6.674;2024-02-21T07:20:38;8.88;;;3.40;;
55212;SDS011;41083;52.932;6.674;2024-02-21T07:23:06;10.38;;;2.80;;
55212;SDS011;41083;52.932;6.674;2024-02-21T07:25:32;14.65;;;4.45;;
55212;SDS011;41083;52.932;6.674;2024-02-21T07:27:58;12.00;;;3.13;;
55212;SDS011;41083;52.932;6.674;2024-02-21T07:30:23;12.68;;;3.47;;
55212;SDS011;41083;52.932;6.674;2024-02-21T07:32:49;10.00;;;3.63;;
55212;SDS011;41083;52.932;6.674;2024-02-21T07:35:17;8.10;;;3.50;;
55212;SDS011;41083;52.932;6.674;2024-02-21T07:37:42;15.02;;;3.47;;
55212;SDS011;41083;52.932;6.674;2024-02-21T07:40:15;9.13;;;3.75;;
55212;SDS011;41083;52.932;6.674;2024-02-21T07:42:42;12.88;;;4.55;;
55212;SDS011;41083;52.932;6.674;2024-02-21T07:45:08;8.13;;;3.40;;
55212;SDS011;41083;52.932;6.674;2024-02-21T07:47:35;9.75;;;3.75;;
55212;SDS011;41083;52.932;6.674;2024-02-21T07:50:01;10.25;;;4.13;;
55212;SDS011;41083;52.932;6.674;2024-02-21T07:52:30;11.93;;;3.97;;
55212;SDS011;41083;52.932;6.674;2024-02-21T07:54:56;8.18;;;3.40;;
55212;SDS011;41083;52.932;6.674;2024-02-21T07:57:22;12.68;;;4.50;;
55212;SDS011;41083;52.932;6.674;2024-02-21T07:59:48;10.30;;;4.07;;
55212;SDS011;41083;52.932;6.674;2024-02-21T08:02:14;15.77;;;4.28;;
55212;SDS011;41083;52.932;6.674;2024-02-21T08:04:40;10.00;;;4.35;;
55212;SDS011;41083;52.932;6.674;2024-02-21T08:07:06;9.25;;;4.63;;
55212;SDS011;41083;52.932;6.674;2024-02-21T08:09:31;12.02;;;4.57;;
55212;SDS011;41083;52.932;6.674;2024-02-21T08:11:57;12.38;;;4.40;;
55212;SDS011;41083;52.932;6.674;2024-02-21T08:14:23;11.20;;;4.50;;
55212;SDS011;41083;52.932;6.674;2024-02-21T08:16:50;11.57;;;4.05;;
55212;SDS011;41083;52.932;6.674;2024-02-21T08:19:18;14.25;;;4.82;;
55212;SDS011;41083;52.932;6.674;2024-02-21T08:21:44;14.05;;;4.72;;
55212;SDS011;41083;52.932;6.674;2024-02-21T08:24:12;12.00;;;5.13;;
55212;SDS011;41083;52.932;6.674;2024-02-21T08:26:47;15.27;;;4.90;;
55212;SDS011;41083;52.932;6.674;2024-02-21T08:29:13;10.80;;;4.55;;
55212;SDS011;41083;52.932;6.674;2024-02-21T08:31:38;12.07;;;4.65;;
55212;SDS011;41083;52.932;6.674;2024-02-21T08:34:04;15.75;;;4.50;;
55212;SDS011;41083;52.932;6.674;2024-02-21T08:36:33;10.93;;;4.13;;
55212;SDS011;41083;52.932;6.674;2024-02-21T08:39:00;14.90;;;5.32;;
55212;SDS011;41083;52.932;6.674;2024-02-21T08:41:28;14.68;;;4.78;;
55212;SDS011;41083;52.932;6.674;2024-02-21T08:43:56;15.00;;;5.35;;
55212;SDS011;41083;52.932;6.674;2024-02-21T08:46:21;13.35;;;5.10;;
55212;SDS011;41083;52.932;6.674;2024-02-21T08:48:49;16.83;;;4.90;;
55212;SDS011;41083;52.932;6.674;2024-02-21T08:51:16;14.75;;;4.80;;
55212;SDS011;41083;52.932;6.674;2024-02-21T08:53:43;12.45;;;5.60;;
55212;SDS011;41083;52.932;6.674;2024-02-21T08:56:09;15.45;;;5.70;;
55212;SDS011;41083;52.932;6.674;2024-02-21T08:58:38;14.40;;;5.68;;
55212;SDS011;41083;52.932;6.674;2024-02-21T09:01:05;13.40;;;5.80;;
55212;SDS011;41083;52.932;6.674;2024-02-21T09:03:32;15.20;;;6.25;;
55212;SDS011;41083;52.932;6.674;2024-02-21T09:05:58;12.38;;;6.72;;
55212;SDS011;41083;52.932;6.674;2024-02-21T09:08:24;14.25;;;6.25;;
55212;SDS011;41083;52.932;6.674;2024-02-21T09:10:50;16.23;;;6.00;;
55212;SDS011;41083;52.932;6.674;2024-02-21T09:13:16;12.93;;;5.95;;
55212;SDS011;41083;52.932;6.674;2024-02-21T09:15:42;16.73;;;6.88;;
55212;SDS011;41083;52.932;6.674;2024-02-21T09:18:08;14.55;;;6.28;;
55212;SDS011;41083;52.932;6.674;2024-02-21T09:20:34;14.70;;;6.07;;
55212;SDS011;41083;52.932;6.674;2024-02-21T09:23:00;14.65;;;6.43;;
55212;SDS011;41083;52.932;6.674;2024-02-21T09:25:25;19.83;;;6.63;;
55212;SDS011;41083;52.932;6.674;2024-02-21T09:27:53;15.15;;;7.03;;
55212;SDS011;41083;52.932;6.674;2024-02-21T09:30:19;16.58;;;7.20;;
55212;SDS011;41083;52.932;6.674;2024-02-21T09:32:45;15.15;;;6.13;;
55212;SDS011;41083;52.932;6.674;2024-02-21T09:35:11;15.73;;;6.05;;
55212;SDS011;41083;52.932;6.674;2024-02-21T09:37:37;16.73;;;6.68;;
55212;SDS011;41083;52.932;6.674;2024-02-21T09:40:04;16.73;;;6.78;;
55212;SDS011;41083;52.932;6.674;2024-02-21T09:42:40;20.08;;;6.45;;
55212;SDS011;41083;52.932;6.674;2024-02-21T09:50:18;14.65;;;6.03;;
55212;SDS011;41083;52.932;6.674;2024-02-21T09:52:46;18.88;;;7.35;;
55212;SDS011;41083;52.932;6.674;2024-02-21T09:55:13;16.55;;;6.50;;
55212;SDS011;41083;52.932;6.674;2024-02-21T09:57:41;16.05;;;6.15;;
55212;SDS011;41083;52.932;6.674;2024-02-21T10:00:09;18.27;;;7.47;;
55212;SDS011;41083;52.932;6.674;2024-02-21T10:02:35;16.23;;;7.35;;
55212;SDS011;41083;52.932;6.674;2024-02-21T10:05:01;13.80;;;6.22;;
55212;SDS011;41083;52.932;6.674;2024-02-21T10:07:29;18.38;;;7.10;;
55212;SDS011;41083;52.932;6.674;2024-02-21T10:10:02;13.27;;;6.35;;
55212;SDS011;41083;52.932;6.674;2024-02-21T10:12:28;13.85;;;6.60;;
55212;SDS011;41083;52.932;6.674;2024-02-21T10:15:00;16.25;;;6.40;;
55212;SDS011;41083;52.932;6.674;2024-02-21T10:17:30;15.48;;;6.57;;
55212;SDS011;41083;52.932;6.674;2024-02-21T10:20:06;16.25;;;6.57;;
55212;SDS011;41083;52.932;6.674;2024-02-21T10:22:33;15.02;;;6.95;;
55212;SDS011;41083;52.932;6.674;2024-02-21T10:25:13;18.70;;;7.32;;
55212;SDS011;41083;52.932;6.674;2024-02-21T10:27:39;12.80;;;6.20;;
55212;SDS011;41083;52.932;6.674;2024-02-21T10:30:06;12.98;;;6.22;;
55212;SDS011;41083;52.932;6.674;2024-02-21T10:32:33;13.93;;;6.05;;
55212;SDS011;41083;52.932;6.674;2024-02-21T10:35:02;18.50;;;6.97;;
55212;SDS011;41083;52.932;6.674;2024-02-21T10:37:29;17.13;;;7.25;;
55212;SDS011;41083;52.932;6.674;2024-02-21T10:39:56;17.63;;;6.28;;
55212;SDS011;41083;52.932;6.674;2024-02-21T10:42:22;11.63;;;5.75;;
55212;SDS011;41083;52.932;6.674;2024-02-21T10:44:49;13.85;;;5.47;;
55212;SDS011;41083;52.932;6.674;2024-02-21T10:47:17;14.05;;;6.85;;
55212;SDS011;41083;52.932;6.674;2024-02-21T10:49:46;12.77;;;6.47;;
55212;SDS011;41083;52.932;6.674;2024-02-21T10:52:24;9.85;;;5.22;;
55212;SDS011;41083;52.932;6.674;2024-02-21T10:55:04;13.38;;;5.55;;
55212;SDS011;41083;52.932;6.674;2024-02-21T10:57:33;15.48;;;5.45;;
55212;SDS011;41083;52.932;6.674;2024-02-21T11:00:00;10.57;;;5.00;;
55212;SDS011;41083;52.932;6.674;2024-02-21T11:02:28;13.32;;;5.13;;
55212;SDS011;41083;52.932;6.674;2024-02-21T11:04:56;13.80;;;4.88;;
55212;SDS011;41083;52.932;6.674;2024-02-21T11:07:23;12.10;;;4.90;;
55212;SDS011;41083;52.932;6.674;2024-02-21T11:09:52;10.10;;;4.70;;
55212;SDS011;41083;52.932;6.674;2024-02-21T11:12:23;11.73;;;5.10;;
55212;SDS011;41083;52.932;6.674;2024-02-21T11:14:49;12.63;;;5.45;;
55212;SDS011;41083;52.932;6.674;2024-02-21T11:17:15;9.02;;;4.07;;
55212;SDS011;41083;52.932;6.674;2024-02-21T11:19:44;10.80;;;5.18;;
55212;SDS011;41083;52.932;6.674;2024-02-21T11:22:16;9.93;;;4.40;;
55212;SDS011;41083;52.932;6.674;2024-02-21T11:24:43;9.43;;;4.80;;
55212;SDS011;41083;52.932;6.674;2024-02-21T11:27:13;9.48;;;4.50;;
55212;SDS011;41083;52.932;6.674;2024-02-21T11:29:42;13.68;;;4.50;;
55212;SDS011;41083;52.932;6.674;2024-02-21T11:32:15;12.88;;;4.70;;
55212;SDS011;41083;52.932;6.674;2024-02-21T11:34:54;9.75;;;4.38;;
55212;SDS011;41083;52.932;6.674;2024-02-21T11:37:21;7.95;;;4.00;;
55212;SDS011;41083;52.932;6.674;2024-02-21T11:39:51;10.10;;;4.20;;
55212;SDS011;41083;52.932;6.674;2024-02-21T11:42:18;9.50;;;3.55;;
55212;SDS011;41083;52.932;6.674;2024-02-21T11:44:45;12.68;;;4.43;;
55212;SDS011;41083;52.932;6.674;2024-02-21T11:47:11;8.90;;;4.35;;
55212;SDS011;41083;52.932;6.674;2024-02-21T11:49:37;10.55;;;3.75;;
55212;SDS011;41083;52.932;6.674;2024-02-21T11:52:04;8.48;;;4.43;;
55212;SDS011;41083;52.932;6.674;2024-02-21T11:54:30;11.13;;;4.18;;
55212;SDS011;41083;52.932;6.674;2024-02-21T11:56:56;6.53;;;3.65;;
55212;SDS011;41083;52.932;6.674;2024-02-21T11:59:22;10.98;;;4.18;;
55212;SDS011;41083;52.932;6.674;2024-02-21T12:01:48;8.40;;;4.38;;
55212;SDS011;41083;52.932;6.674;2024-02-21T12:04:14;9.55;;;3.80;;
55212;SDS011;41083;52.932;6.674;2024-02-21T12:06:42;6.18;;;3.70;;
55212;SDS011;41083;52.932;6.674;2024-02-21T12:09:09;8.82;;;4.13;;
55212;SDS011;41083;52.932;6.674;2024-02-21T12:11:38;10.43;;;4.13;;
55212;SDS011;41083;52.932;6.674;2024-02-21T12:14:04;8.88;;;3.50;;
55212;SDS011;41083;52.932;6.674;2024-02-21T12:16:33;9.70;;;4.13;;
55212;SDS011;41083;52.932;6.674;2024-02-21T12:18:59;7.75;;;3.50;;
55212;SDS011;41083;52.932;6.674;2024-02-21T12:21:26;9.82;;;3.70;;
55212;SDS011;41083;52.932;6.674;2024-02-21T12:23:55;9.57;;;3.58;;
55212;SDS011;41083;52.932;6.674;2024-02-21T12:26:21;9.45;;;3.42;;
55212;SDS011;41083;52.932;6.674;2024-02-21T12:28:47;7.97;;;3.75;;
55212;SDS011;41083;52.932;6.674;2024-02-21T12:31:13;6.68;;;3.17;;
55212;SDS011;41083;52.932;6.674;2024-02-21T12:33:41;12.00;;;3.80;;
55212;SDS011;41083;52.932;6.674;2024-02-21T12:36:07;7.15;;;3.20;;
55212;SDS011;41083;52.932;6.674;2024-02-21T12:38:34;6.57;;;3.33;;
55212;SDS011;41083;52.932;6.674;2024-02-21T12:41:00;8.13;;;3.38;;
55212;SDS011;41083;52.932;6.674;2024-02-21T12:43:26;8.73;;;2.97;;
55212;SDS011;41083;52.932;6.674;2024-02-21T12:45:52;6.65;;;2.90;;
55212;SDS011;41083;52.932;6.674;2024-02-21T12:48:18;5.57;;;2.47;;
55212;SDS011;41083;52.932;6.674;2024-02-21T12:50:48;6.97;;;3.03;;
55212;SDS011;41083;52.932;6.674;2024-02-21T12:53:17;7.32;;;2.83;;
55212;SDS011;41083;52.932;6.674;2024-02-21T12:55:48;8.15;;;2.70;;
55212;SDS011;41083;52.932;6.674;2024-02-21T12:58:13;5.10;;;2.75;;
55212;SDS011;41083;52.932;6.674;2024-02-21T13:00:39;5.68;;;2.40;;
55212;SDS011;41083;52.932;6.674;2024-02-21T13:03:05;5.45;;;2.60;;
55212;SDS011;41083;52.932;6.674;2024-02-21T13:05:31;5.82;;;2.58;;
55212;SDS011;41083;52.932;6.674;2024-02-21T13:07:57;4.22;;;1.95;;
55212;SDS011;41083;52.932;6.674;2024-02-21T13:10:23;4.82;;;2.35;;
55212;SDS011;41083;52.932;6.674;2024-02-21T13:12:49;4.82;;;1.98;;
55212;SDS011;41083;52.932;6.674;2024-02-21T13:15:15;4.75;;;2.22;;
55212;SDS011;41083;52.932;6.674;2024-02-21T13:17:43;3.75;;;2.03;;
55212;SDS011;41083;52.932;6.674;2024-02-21T13:20:09;4.45;;;2.10;;
55212;SDS011;41083;52.932;6.674;2024-02-21T13:22:35;5.07;;;2.30;;
55212;SDS011;41083;52.932;6.674;2024-02-21T13:25:01;6.70;;;1.90;;
55212;SDS011;41083;52.932;6.674;2024-02-21T13:27:27;4.53;;;2.10;;
55212;SDS011;41083;52.932;6.674;2024-02-21T13:29:53;5.30;;;2.33;;
55212;SDS011;41083;52.932;6.674;2024-02-21T13:32:19;5.28;;;2.00;;
55212;SDS011;41083;52.932;6.674;2024-02-21T13:34:44;5.55;;;2.10;;
55212;SDS011;41083;52.932;6.674;2024-02-21T13:37:10;4.68;;;1.92;;
55212;SDS011;41083;52.932;6.674;2024-02-21T13:39:36;5.15;;;2.33;;
55212;SDS011;41083;52.932;6.674;2024-02-21T13:42:02;6.70;;;2.38;;
55212;SDS011;41083;52.932;6.674;2024-02-21T13:44:31;6.05;;;2.15;;
55212;SDS011;41083;52.932;6.674;2024-02-21T13:46:57;4.68;;;2.33;;
55212;SDS011;41083;52.932;6.674;2024-02-21T13:49:22;5.90;;;2.33;;
55212;SDS011;41083;52.932;6.674;2024-02-21T13:51:48;5.82;;;3.10;;
55212;SDS011;41083;52.932;6.674;2024-02-21T13:54:14;5.28;;;2.60;;
55212;SDS011;41083;52.932;6.674;2024-02-21T13:56:42;5.20;;;2.08;;
55212;SDS011;41083;52.932;6.674;2024-02-21T13:59:08;8.50;;;2.58;;
55212;SDS011;41083;52.932;6.674;2024-02-21T14:01:34;4.65;;;2.25;;
55212;SDS011;41083;52.932;6.674;2024-02-21T14:04:00;5.22;;;2.50;;
55212;SDS011;41083;52.932;6.674;2024-02-21T14:06:26;6.68;;;2.58;;
55212;SDS011;41083;52.932;6.674;2024-02-21T14:08:52;5.15;;;2.17;;
55212;SDS011;41083;52.932;6.674;2024-02-21T14:11:18;8.75;;;2.72;;
55212;SDS011;41083;52.932;6.674;2024-02-21T14:13:43;5.00;;;2.88;;
55212;SDS011;41083;52.932;6.674;2024-02-21T14:16:10;5.43;;;2.30;;
55212;SDS011;41083;52.932;6.674;2024-02-21T14:18:38;4.80;;;2.45;;
55212;SDS011;41083;52.932;6.674;2024-02-21T14:21:06;5.32;;;2.50;;
55212;SDS011;41083;52.932;6.674;2024-02-21T14:23:31;5.88;;;2.70;;
55212;SDS011;41083;52.932;6.674;2024-02-21T14:25:58;5.18;;;2.60;;
55212;SDS011;41083;52.932;6.674;2024-02-21T14:28:24;6.68;;;3.13;;
55212;SDS011;41083;52.932;6.674;2024-02-21T14:30:50;6.57;;;2.55;;
55212;SDS011;41083;52.932;6.674;2024-02-21T14:33:18;5.03;;;2.35;;
55212;SDS011;41083;52.932;6.674;2024-02-21T14:35:44;6.72;;;3.00;;
55212;SDS011;41083;52.932;6.674;2024-02-21T14:38:10;9.10;;;2.80;;
55212;SDS011;41083;52.932;6.674;2024-02-21T14:40:35;4.97;;;2.80;;
55212;SDS011;41083;52.932;6.674;2024-02-21T14:43:01;7.97;;;2.60;;
55212;SDS011;41083;52.932;6.674;2024-02-21T14:45:27;5.85;;;2.58;;
55212;SDS011;41083;52.932;6.674;2024-02-21T14:47:52;5.35;;;2.70;;